Time;durP1;ratioP1;P1;durP2;ratioP2;P2;SDS_P1;SDS_P2;PMS_P1;PMS_P2;Temp;Humidity;BMP_temperature;BMP_pressure;BME280_temperature;BME280_humidity;BME280_pressure;Samples;Min_cycle;Max_cycle;Signal;HPM_P1;HPM_P2
2023/07/04 00:04:45;;;;;;;5.65;4.15;;;13.60;99.90;;;;;;10395612;28;20725;-91
2023/07/04 00:09:47;;;;;;;10.48;4.90;;;13.50;99.90;;;;;;10395142;28;20266;-91
2023/07/04 00:14:50;;;;;;;11.32;6.18;;;13.60;99.90;;;;;;10412855;28;20638;-91
2023/07/04 00:19:53;;;;;;;7.72;4.25;;;13.40;99.90;;;;;;10394345;28;20212;-90
2023/07/04 00:24:56;;;;;;;8.30;4.80;;;13.30;99.90;;;;;;10412976;28;20516;-91
2023/07/04 00:29:59;;;;;;;9.60;5.55;;;13.10;99.90;;;;;;10412217;28;20203;-90
2023/07/04 00:35:02;;;;;;;9.95;4.90;;;13.00;99.90;;;;;;10393920;28;20281;-90
2023/07/04 00:40:10;;;;;;;10.98;5.22;;;12.90;99.90;;;;;;10394067;28;20274;-90
2023/07/04 00:45:20;;;;;;;7.20;5.07;;;12.80;99.90;;;;;;10394485;28;20207;-90
2023/07/04 00:50:33;;;;;;;9.48;5.43;;;12.90;99.90;;;;;;10393832;28;20227;-90
2023/07/04 00:55:41;;;;;;;9.30;4.50;;;12.90;99.90;;;;;;10393621;28;20722;-91
2023/07/04 01:00:44;;;;;;;15.05;5.72;;;12.80;99.90;;;;;;10394022;28;20207;-89
2023/07/04 01:06:08;;;;;;;8.48;4.28;;;12.80;99.90;;;;;;10394035;28;20207;-91
2023/07/04 01:11:19;;;;;;;6.80;4.57;;;12.90;99.90;;;;;;10393827;28;20223;-90
2023/07/04 01:16:23;;;;;;;11.77;5.53;;;12.90;99.90;;;;;;10393926;28;20288;-89
2023/07/04 01:21:27;;;;;;;9.52;4.75;;;12.80;99.90;;;;;;10392197;28;20243;-91
2023/07/04 01:26:46;;;;;;;12.00;5.78;;;12.80;99.90;;;;;;10392931;28;20257;-90
2023/07/04 01:31:49;;;;;;;15.13;5.68;;;12.70;99.90;;;;;;10392102;28;20927;-90
2023/07/04 01:36:52;;;;;;;7.78;4.88;;;12.60;99.90;;;;;;10376926;28;20212;-92
2023/07/04 01:41:54;;;;;;;12.65;5.22;;;12.50;99.90;;;;;;10392949;28;20595;-90
2023/07/04 01:46:57;;;;;;;10.98;5.55;;;12.40;99.90;;;;;;10394198;28;20258;-90
2023/07/04 01:51:59;;;;;;;6.53;4.43;;;12.30;99.90;;;;;;10400121;28;20686;-90
2023/07/04 01:57:02;;;;;;;6.82;4.72;;;12.40;99.90;;;;;;10359826;28;20216;-89
2023/07/04 02:02:05;;;;;;;10.25;4.90;;;12.60;99.90;;;;;;10396185;28;20224;-92
2023/07/04 02:07:08;;;;;;;12.73;4.70;;;12.70;99.90;;;;;;10400473;28;20242;-89
2023/07/04 02:12:11;;;;;;;10.63;5.63;;;12.80;99.90;;;;;;10399595;28;20271;-91
2023/07/04 02:17:13;;;;;;;9.73;5.10;;;12.80;99.90;;;;;;10383075;28;20306;-90
2023/07/04 02:22:16;;;;;;;13.60;5.50;;;12.60;99.90;;;;;;10383107;28;20200;-91
2023/07/04 02:27:20;;;;;;;14.77;5.63;;;12.60;99.90;;;;;;10399618;28;20200;-91
2023/07/04 02:32:23;;;;;;;5.38;4.50;;;12.50;99.90;;;;;;10415686;28;20262;-90
2023/07/04 02:37:26;;;;;;;7.47;4.72;;;12.40;99.90;;;;;;10399054;28;20200;-90
2023/07/04 02:42:29;;;;;;;16.10;6.03;;;12.30;99.90;;;;;;10382423;28;20211;-90
2023/07/04 02:47:32;;;;;;;8.10;4.97;;;12.20;99.90;;;;;;10398690;28;20562;-94
2023/07/04 02:52:38;;;;;;;12.07;5.38;;;12.40;99.90;;;;;;10397915;28;20630;-91
2023/07/04 02:57:41;;;;;;;14.95;5.50;;;12.50;99.90;;;;;;10398308;28;20258;-90
2023/07/04 03:02:44;;;;;;;8.07;5.50;;;12.30;99.90;;;;;;10381064;28;20270;-90
2023/07/04 03:07:48;;;;;;;9.75;4.35;;;12.30;99.90;;;;;;10397666;28;20298;-91
2023/07/04 03:12:53;;;;;;;7.95;4.32;;;12.60;99.90;;;;;;10397090;28;20278;-91
2023/07/04 03:17:57;;;;;;;8.20;4.35;;;12.50;99.90;;;;;;10414790;28;20208;-90
2023/07/04 03:23:01;;;;;;;9.43;5.65;;;12.60;99.90;;;;;;10396470;28;20319;-91
2023/07/04 03:28:04;;;;;;;8.73;5.57;;;12.50;99.90;;;;;;10396928;28;20224;-91
2023/07/04 03:33:07;;;;;;;6.82;4.80;;;12.30;99.90;;;;;;10413308;28;20634;-91
2023/07/04 03:38:09;;;;;;;20.52;6.70;;;12.50;99.90;;;;;;10414764;28;20267;-90
2023/07/04 03:43:12;;;;;;;9.32;5.10;;;12.50;99.90;;;;;;10396727;28;20262;-91
2023/07/04 03:48:15;;;;;;;12.52;5.90;;;12.80;99.90;;;;;;10396773;28;20606;-90
2023/07/04 03:53:19;;;;;;;13.98;5.82;;;12.70;99.90;;;;;;10426643;28;20270;-89
2023/07/04 03:58:23;;;;;;;8.68;5.30;;;12.70;99.90;;;;;;10415174;28;20215;-91
2023/07/04 04:03:25;;;;;;;8.60;5.60;;;12.80;99.90;;;;;;10379212;28;20546;-91
2023/07/04 04:08:28;;;;;;;8.00;4.43;;;12.90;99.90;;;;;;10413430;28;20705;-90
2023/07/04 04:13:31;;;;;;;13.57;6.93;;;13.20;99.90;;;;;;10395122;28;20336;-89
2023/07/04 04:18:33;;;;;;;12.68;5.43;;;13.40;99.90;;;;;;10411956;28;20289;-90
2023/07/04 04:23:36;;;;;;;11.10;5.22;;;13.60;99.90;;;;;;10393775;28;20226;-94
2023/07/04 04:28:38;;;;;;;18.55;6.32;;;13.80;99.90;;;;;;10411126;28;20207;-91
2023/07/04 04:33:42;;;;;;;13.18;5.32;;;14.00;99.90;;;;;;10411751;28;20288;-91
2023/07/04 04:38:45;;;;;;;11.32;4.75;;;14.30;99.90;;;;;;10394138;28;20212;-91
2023/07/04 04:43:49;;;;;;;6.40;4.40;;;14.50;99.90;;;;;;10412455;28;20230;-89
2023/07/04 04:48:52;;;;;;;11.30;4.40;;;14.70;99.90;;;;;;10393570;28;20627;-90
2023/07/04 04:53:55;;;;;;;12.63;5.75;;;14.90;99.90;;;;;;10393514;28;20266;-91
2023/07/04 04:58:58;;;;;;;10.43;4.88;;;15.20;99.90;;;;;;10377350;28;20274;-91
2023/07/04 05:04:03;;;;;;;14.60;4.63;;;15.50;99.90;;;;;;10393634;28;20210;-91
2023/07/04 05:09:05;;;;;;;9.82;4.75;;;15.90;99.50;;;;;;10409942;28;20235;-91
2023/07/04 05:14:09;;;;;;;5.38;3.55;;;16.40;96.90;;;;;;10377202;28;20699;-90
2023/07/04 05:19:11;;;;;;;18.33;5.15;;;16.80;96.80;;;;;;10410822;28;20211;-90
2023/07/04 05:24:15;;;;;;;12.68;4.75;;;17.00;95.60;;;;;;10396760;28;20300;-90
2023/07/04 05:29:17;;;;;;;13.55;4.78;;;17.00;95.30;;;;;;10419087;28;20259;-91
2023/07/04 05:34:20;;;;;;;9.57;3.70;;;17.10;94.20;;;;;;10420821;28;20566;-90
2023/07/04 05:39:22;;;;;;;15.35;4.40;;;17.40;94.00;;;;;;10387484;28;20207;-90
2023/07/04 05:44:25;;;;;;;12.32;4.38;;;17.60;92.40;;;;;;10395816;28;20270;-90
2023/07/04 05:49:28;;;;;;;13.63;4.47;;;17.70;90.70;;;;;;10420631;28;20263;-91
2023/07/04 05:54:30;;;;;;;7.85;3.63;;;18.00;88.80;;;;;;10403838;28;20262;-91
2023/07/04 05:59:33;;;;;;;16.42;4.22;;;18.30;89.70;;;;;;10403884;28;20281;-91
2023/07/04 06:04:35;;;;;;;13.90;4.22;;;18.40;86.50;;;;;;10387115;28;20204;-91
2023/07/04 06:09:38;;;;;;;13.48;5.05;;;18.50;84.00;;;;;;10416671;28;20270;-91
2023/07/04 06:14:41;;;;;;;8.20;3.30;;;18.60;83.60;;;;;;10416043;28;20346;-92
2023/07/04 06:19:48;;;;;;;8.27;3.95;;;18.80;83.00;;;;;;10387763;28;20638;-91
2023/07/04 06:24:51;;;;;;;8.27;3.38;;;19.10;81.40;;;;;;10402487;28;20199;-90
2023/07/04 06:29:55;;;;;;;4.25;3.25;;;19.40;78.00;;;;;;10401064;28;20199;-93
2023/07/04 06:34:57;;;;;;;8.70;4.32;;;19.70;77.00;;;;;;10418419;28;20748;-91
2023/07/04 06:40:01;;;;;;;4.97;2.72;;;20.30;73.20;;;;;;10401802;28;20204;-92
2023/07/04 06:45:04;;;;;;;4.60;3.65;;;21.00;68.20;;;;;;10384530;28;20215;-93
2023/07/04 06:50:07;;;;;;;7.55;3.88;;;21.40;63.90;;;;;;10416620;28;20223;-91
2023/07/04 06:55:10;;;;;;;6.05;3.50;;;21.50;61.90;;;;;;10402022;28;20674;-92
2023/07/04 07:00:14;;;;;;;7.10;3.50;;;21.60;60.30;;;;;;10384971;28;20216;-93
2023/07/04 07:05:18;;;;;;;6.63;3.50;;;21.80;57.30;;;;;;10415167;28;20313;-93
2023/07/04 07:10:21;;;;;;;7.22;3.83;;;22.00;55.40;;;;;;10396925;28;20304;-91
2023/07/04 07:15:25;;;;;;;5.85;4.13;;;22.10;53.50;;;;;;10396372;28;20250;-91
2023/07/04 07:20:27;;;;;;;6.80;3.63;;;22.10;53.20;;;;;;10396918;28;20208;-92
2023/07/04 07:25:30;;;;;;;8.20;3.50;;;22.40;51.00;;;;;;10398400;28;20223;-92
2023/07/04 07:30:33;;;;;;;7.63;3.40;;;22.40;49.70;;;;;;10397427;28;20239;-92
2023/07/04 07:35:35;;;;;;;6.40;3.55;;;22.50;49.10;;;;;;10381814;28;20382;-92
2023/07/04 07:40:38;;;;;;;4.10;2.60;;;22.60;48.20;;;;;;10396727;28;20610;-92
2023/07/04 07:45:40;;;;;;;3.45;2.00;;;22.70;47.70;;;;;;10413746;28;20745;-91
2023/07/04 07:50:44;;;;;;;4.35;3.95;;;22.70;46.90;;;;;;10397361;28;20227;-94
2023/07/04 07:55:46;;;;;;;5.60;3.00;;;22.80;46.30;;;;;;10381554;28;20255;-91
2023/07/04 08:00:49;;;;;;;5.50;3.25;;;22.80;45.70;;;;;;10413437;28;20545;-92
2023/07/04 08:05:52;;;;;;;8.50;4.30;;;22.90;44.90;;;;;;10395899;28;20597;-92
2023/07/04 08:10:55;;;;;;;6.22;3.50;;;22.90;44.10;;;;;;10395435;28;20203;-91
2023/07/04 08:15:58;;;;;;;4.85;3.03;;;22.90;44.70;;;;;;10395403;28;20310;-93
2023/07/04 08:21:03;;;;;;;16.17;5.07;;;22.90;43.70;;;;;;10412739;28;20558;-92
2023/07/04 08:26:05;;;;;;;9.00;4.35;;;23.00;43.00;;;;;;10413011;28;20857;-92
2023/07/04 08:31:09;;;;;;;4.05;2.92;;;23.00;42.80;;;;;;10411541;28;20599;-93
2023/07/04 08:36:13;;;;;;;10.77;5.93;;;23.10;42.60;;;;;;10377774;28;20267;-91
2023/07/04 08:41:24;;;;;;;7.28;5.28;;;23.10;40.50;;;;;;10377798;28;20204;-91
2023/07/04 08:46:33;;;;;;;9.40;4.47;;;23.20;40.80;;;;;;10396845;28;20211;-90
2023/07/04 08:51:43;;;;;;;4.85;3.90;;;23.20;40.90;;;;;;10396230;28;20239;-91
2023/07/04 08:56:47;;;;;;;4.78;3.45;;;23.10;41.10;;;;;;10396877;28;20239;-90
2023/07/04 09:02:07;;;;;;;5.75;3.95;;;23.00;41.00;;;;;;10410708;28;20213;-92
2023/07/04 09:07:19;;;;;;;10.27;5.50;;;23.10;40.80;;;;;;10393922;28;20546;-94
2023/07/04 09:12:21;;;;;;;5.35;4.00;;;23.30;40.80;;;;;;10392436;28;20278;-93
2023/07/04 09:17:30;;;;;;;9.88;5.53;;;23.20;38.50;;;;;;10410966;28;20693;-91
2023/07/04 09:22:34;;;;;;;8.00;4.40;;;23.20;36.80;;;;;;10410133;28;20290;-92
2023/07/04 09:27:36;;;;;;;4.95;3.47;;;23.20;38.70;;;;;;10409762;28;20301;-92
2023/07/04 09:32:39;;;;;;;6.15;3.47;;;23.20;38.50;;;;;;10393236;28;20224;-90
2023/07/04 09:37:57;;;;;;;3.92;2.75;;;23.10;38.50;;;;;;10392549;28;20299;-91
2023/07/04 09:43:00;;;;;;;6.22;3.70;;;23.10;38.60;;;;;;10410852;28;20274;-92
2023/07/04 09:48:06;;;;;;;11.88;3.20;;;23.10;36.50;;;;;;10408614;28;20711;-91
2023/07/04 09:53:16;;;;;;;10.55;5.07;;;23.10;37.40;;;;;;10351862;28;20673;-91
2023/07/04 09:58:21;;;;;;;9.65;4.95;;;23.20;34.20;;;;;;10373661;28;20602;-93
2023/07/04 10:03:25;;;;;;;4.80;2.83;;;23.20;34.90;;;;;;10384197;28;20209;-90
2023/07/04 10:08:28;;;;;;;6.43;4.45;;;23.20;32.90;;;;;;10378112;28;20208;-92
2023/07/04 10:13:39;;;;;;;6.28;3.97;;;23.30;36.10;;;;;;10358489;28;20283;-90
2023/07/04 10:18:41;;;;;;;9.18;4.93;;;23.30;35.80;;;;;;10374443;28;20339;-95
2023/07/04 10:23:45;;;;;;;5.28;3.75;;;23.30;32.60;;;;;;10359668;28;20216;-92
2023/07/04 10:28:48;;;;;;;5.18;3.78;;;23.30;33.90;;;;;;10374247;28;20212;-92
2023/07/04 10:33:57;;;;;;;5.00;3.72;;;23.40;34.40;;;;;;10358418;28;20267;-93
2023/07/04 10:39:06;;;;;;;8.05;4.80;;;23.30;33.80;;;;;;10374496;28;20244;-93
2023/07/04 10:44:17;;;;;;;6.70;4.43;;;23.40;32.70;;;;;;10373983;28;20584;-92
2023/07/04 10:49:22;;;;;;;6.72;4.10;;;23.30;34.40;;;;;;10377544;28;20259;-92
2023/07/04 10:54:25;;;;;;;6.65;4.40;;;23.30;32.20;;;;;;10397740;28;20350;-91
2023/07/04 10:59:33;;;;;;;5.47;3.83;;;23.40;32.80;;;;;;10397919;28;20216;-92
2023/07/04 11:04:38;;;;;;;6.75;4.35;;;23.50;32.10;;;;;;10421490;28;20288;-92
2023/07/04 11:09:42;;;;;;;7.30;4.78;;;23.50;29.90;;;;;;10427080;28;20733;-91
2023/07/04 11:14:46;;;;;;;6.57;4.38;;;23.50;28.70;;;;;;10397026;28;20259;-92
2023/07/04 11:19:55;;;;;;;6.03;4.40;;;23.60;29.60;;;;;;10413938;28;20232;-92
2023/07/04 11:25:18;;;;;;;6.75;4.47;;;23.60;32.10;;;;;;10396860;28;20235;-91
2023/07/04 11:30:34;;;;;;;11.90;4.78;;;23.50;32.00;;;;;;10397480;28;20274;-93
2023/07/04 11:35:38;;;;;;;4.72;3.25;;;23.50;30.00;;;;;;10397329;28;20709;-92
2023/07/04 11:40:49;;;;;;;6.88;4.03;;;23.60;30.10;;;;;;10396986;28;20705;-93
2023/07/04 11:45:55;;;;;;;5.63;4.63;;;23.60;30.60;;;;;;10414053;28;20243;-91
2023/07/04 11:51:04;;;;;;;5.22;4.55;;;23.50;31.30;;;;;;10397234;28;20570;-93
2023/07/04 11:56:23;;;;;;;6.88;4.10;;;23.60;31.20;;;;;;10413549;28;20340;-92
2023/07/04 12:01:45;;;;;;;6.63;5.03;;;23.60;29.10;;;;;;10388719;28;20617;-92
2023/07/04 12:07:16;;;;;;;9.90;5.18;;;23.60;29.20;;;;;;10394154;28;20215;-92
2023/07/04 12:12:25;;;;;;;10.52;5.55;;;23.70;29.30;;;;;;10395040;28;20211;-90
2023/07/04 12:17:28;;;;;;;6.28;4.60;;;23.70;25.80;;;;;;10378623;28;20231;-92
2023/07/04 12:22:30;;;;;;;8.57;5.10;;;23.90;26.40;;;;;;10411065;28;20208;-92
2023/07/04 12:27:33;;;;;;;6.97;5.35;;;23.80;28.30;;;;;;10411920;28;20207;-92
2023/07/04 12:32:39;;;;;;;13.77;6.40;;;23.70;27.90;;;;;;10393149;28;20203;-91
2023/07/04 12:37:47;;;;;;;5.95;4.63;;;24.00;26.90;;;;;;10395556;28;20293;-90
2023/07/04 12:42:50;;;;;;;4.38;3.67;;;24.10;27.20;;;;;;10411789;28;20219;-90
2023/07/04 12:48:03;;;;;;;7.00;5.35;;;23.90;26.30;;;;;;10394487;28;20654;-92
2023/07/04 12:53:11;;;;;;;8.50;5.25;;;23.90;29.10;;;;;;10409754;28;20580;-91
2023/07/04 12:58:14;;;;;;;6.00;4.45;;;24.20;26.80;;;;;;10409906;28;20266;-91
2023/07/04 13:03:18;;;;;;;9.35;5.03;;;24.10;27.50;;;;;;10411993;28;20199;-91
2023/07/04 13:08:27;;;;;;;9.10;5.30;;;23.80;27.50;;;;;;10393742;28;20273;-91
2023/07/04 13:13:36;;;;;;;11.00;7.82;;;23.80;27.20;;;;;;10392600;28;20243;-91
2023/07/04 13:18:44;;;;;;;10.73;6.72;;;24.00;26.90;;;;;;10410431;28;20212;-92
2023/07/04 13:23:47;;;;;;;7.93;6.53;;;23.80;26.80;;;;;;10393092;28;20235;-92
2023/07/04 13:29:19;;;;;;;16.67;7.93;;;23.80;27.20;;;;;;10409116;28;20261;-90
2023/07/04 13:34:25;;;;;;;8.15;5.47;;;24.00;26.40;;;;;;10384545;28;20266;-91
2023/07/04 13:39:29;;;;;;;13.85;9.13;;;23.90;26.90;;;;;;10410660;28;20235;-91
2023/07/04 13:44:34;;;;;;;9.02;6.35;;;24.00;25.40;;;;;;10395982;28;20216;-91
2023/07/04 13:49:40;;;;;;;8.48;5.97;;;24.20;26.00;;;;;;10416078;28;20305;-93
2023/07/04 13:54:43;;;;;;;7.97;5.68;;;24.10;26.70;;;;;;10418710;28;20231;-91
2023/07/04 13:59:47;;;;;;;7.53;6.50;;;23.90;26.40;;;;;;10402831;28;20652;-91
2023/07/04 14:04:50;;;;;;;9.13;4.82;;;23.80;26.10;;;;;;10402477;28;20258;-91
2023/07/04 14:09:56;;;;;;;8.32;7.00;;;23.70;27.20;;;;;;10420767;28;20199;-92
2023/07/04 14:14:58;;;;;;;8.80;6.90;;;23.70;26.10;;;;;;10417852;28;20259;-91
2023/07/04 14:20:05;;;;;;;11.98;7.32;;;23.90;24.90;;;;;;10383823;28;20704;-91
2023/07/04 14:25:08;;;;;;;9.15;7.22;;;23.80;26.10;;;;;;10415721;28;20212;-90
2023/07/04 14:30:11;;;;;;;11.93;8.63;;;23.70;26.90;;;;;;10398629;28;20211;-91
2023/07/04 14:35:13;;;;;;;12.00;7.80;;;23.70;25.00;;;;;;10415407;28;20310;-90
2023/07/04 14:40:16;;;;;;;11.55;8.10;;;24.00;24.60;;;;;;10415735;28;20235;-90
2023/07/04 14:45:22;;;;;;;11.13;5.85;;;24.00;24.60;;;;;;10414195;28;20270;-91
2023/07/04 14:50:25;;;;;;;9.20;6.95;;;23.90;24.90;;;;;;10427674;28;20223;-90
2023/07/04 14:55:28;;;;;;;10.32;7.25;;;23.90;24.60;;;;;;10455337;28;20633;-90
2023/07/04 15:00:39;;;;;;;12.90;8.35;;;24.00;24.90;;;;;;10401709;28;20235;-91
2023/07/04 15:05:41;;;;;;;13.00;8.57;;;24.10;23.80;;;;;;10376351;28;20730;-91
2023/07/04 15:10:45;;;;;;;12.32;7.55;;;24.00;22.40;;;;;;10414557;28;20583;-90
2023/07/04 15:15:48;;;;;;;19.25;5.72;;;24.00;24.10;;;;;;10456601;28;20285;-90
2023/07/04 15:20:51;;;;;;;10.80;7.60;;;23.70;23.00;;;;;;10410822;28;20254;-90
2023/07/04 15:25:54;;;;;;;11.70;7.28;;;23.70;24.70;;;;;;10413228;28;20212;-89
2023/07/04 15:31:09;;;;;;;10.07;6.57;;;23.80;24.40;;;;;;10399548;28;20255;-91
2023/07/04 15:36:11;;;;;;;8.88;6.70;;;23.70;25.10;;;;;;10415631;28;20297;-90
2023/07/04 15:41:21;;;;;;;10.13;7.60;;;23.70;25.40;;;;;;10415783;28;20254;-90
2023/07/04 15:46:24;;;;;;;11.38;8.27;;;23.70;23.90;;;;;;10400359;28;20234;-92
2023/07/04 15:51:29;;;;;;;11.73;7.80;;;23.90;24.90;;;;;;10390820;28;20285;-89
2023/07/04 15:56:33;;;;;;;9.95;7.15;;;23.70;24.50;;;;;;10397795;28;20258;-88
2023/07/04 16:01:53;;;;;;;12.38;8.13;;;23.70;24.90;;;;;;10440412;28;20211;-89
2023/07/04 16:06:57;;;;;;;12.30;8.55;;;23.60;25.70;;;;;;10395169;28;20253;-91
2023/07/04 16:12:03;;;;;;;14.50;8.57;;;23.60;24.90;;;;;;10394335;28;20372;-90
2023/07/04 16:17:06;;;;;;;10.60;7.70;;;23.60;24.50;;;;;;10394467;28;20262;-90
2023/07/04 16:22:09;;;;;;;10.30;7.25;;;23.70;23.10;;;;;;10411383;28;20296;-89
2023/07/04 16:27:12;;;;;;;10.20;7.63;;;23.70;25.00;;;;;;10394380;28;20366;-89
2023/07/04 16:32:14;;;;;;;11.95;8.07;;;23.70;25.30;;;;;;10410290;28;20207;-92
2023/07/04 16:37:17;;;;;;;9.80;5.68;;;23.80;25.90;;;;;;10416187;28;20756;-91
2023/07/04 16:42:19;;;;;;;12.77;8.48;;;23.70;24.60;;;;;;10410706;28;20615;-90
2023/07/04 16:47:22;;;;;;;12.52;7.90;;;23.70;24.90;;;;;;10377127;28;20207;-90
2023/07/04 16:52:25;;;;;;;12.93;9.20;;;23.90;24.50;;;;;;10410929;28;20281;-91
2023/07/04 16:57:28;;;;;;;13.05;8.13;;;23.90;24.00;;;;;;10393293;28;20661;-89
2023/07/04 17:02:30;;;;;;;13.45;8.02;;;23.90;22.70;;;;;;10392530;28;20212;-91
2023/07/04 17:07:33;;;;;;;12.70;7.20;;;23.80;23.80;;;;;;10409943;28;20239;-90
2023/07/04 17:12:36;;;;;;;13.93;7.85;;;23.70;22.60;;;;;;10391675;28;20239;-91
2023/07/04 17:17:39;;;;;;;10.90;7.25;;;23.60;25.40;;;;;;10393117;28;20263;-89
2023/07/04 17:22:42;;;;;;;12.20;7.80;;;23.50;25.60;;;;;;10401036;28;20349;-89
2023/07/04 17:27:44;;;;;;;10.35;7.10;;;23.30;22.90;;;;;;10417922;28;20559;-89
2023/07/04 17:32:47;;;;;;;10.65;8.15;;;23.30;25.50;;;;;;10384953;28;20258;-90
2023/07/04 17:37:51;;;;;;;15.18;8.75;;;23.30;25.60;;;;;;10400758;28;20251;-90
2023/07/04 17:42:54;;;;;;;9.70;7.40;;;23.30;24.60;;;;;;10399229;28;20289;-89
2023/07/04 17:47:57;;;;;;;12.40;5.65;;;23.20;21.50;;;;;;10418107;28;20703;-89
2023/07/04 17:53:00;;;;;;;9.35;6.57;;;23.20;20.70;;;;;;10397459;28;20263;-90
2023/07/04 17:58:03;;;;;;;9.70;5.82;;;23.20;25.00;;;;;;10416678;28;20313;-90
2023/07/04 18:03:05;;;;;;;10.55;6.40;;;23.00;20.80;;;;;;10414096;28;20601;-90
2023/07/04 18:08:09;;;;;;;11.23;6.20;;;23.00;22.00;;;;;;10416629;28;20258;-89
2023/07/04 18:13:12;;;;;;;10.93;6.57;;;22.80;21.30;;;;;;10398939;28;20609;-89
2023/07/04 18:18:15;;;;;;;10.18;6.22;;;22.70;23.00;;;;;;10415971;28;20271;-88
2023/07/04 18:23:17;;;;;;;8.93;5.70;;;22.50;24.00;;;;;;10371605;28;20671;-89
2023/07/04 18:28:20;;;;;;;10.13;4.93;;;22.40;25.00;;;;;;10419664;28;20688;-90
2023/07/04 18:33:23;;;;;;;9.38;5.68;;;22.20;24.00;;;;;;10063199;28;9999848;-90
2023/07/04 18:38:26;;;;;;;8.98;6.25;;;21.90;25.30;;;;;;10412518;28;20696;-89
2023/07/04 18:43:28;;;;;;;14.45;5.18;;;21.70;26.70;;;;;;10394098;28;20594;-90
2023/07/04 18:48:32;;;;;;;6.57;4.38;;;21.50;25.80;;;;;;10411747;28;20695;-90
2023/07/04 18:53:34;;;;;;;6.95;5.10;;;21.30;26.20;;;;;;10377159;28;20629;-90
2023/07/04 18:58:42;;;;;;;7.03;4.65;;;21.00;27.40;;;;;;10411136;28;20263;-90
2023/07/04 19:03:45;;;;;;;9.73;4.72;;;20.60;30.50;;;;;;10393817;28;20235;-90
2023/07/04 19:08:49;;;;;;;7.00;4.90;;;20.00;34.30;;;;;;10393127;28;20297;-89
2023/07/04 19:14:15;;;;;;;12.45;4.88;;;19.60;37.50;;;;;;10393244;28;20235;-89
2023/07/04 19:19:23;;;;;;;9.48;4.72;;;19.20;42.40;;;;;;10392520;28;20768;-90
2023/07/04 19:24:28;;;;;;;6.85;4.70;;;18.80;46.00;;;;;;10393000;28;20235;-90
2023/07/04 19:29:31;;;;;;;17.50;5.55;;;18.40;48.30;;;;;;10391759;28;20290;-89
2023/07/04 19:34:33;;;;;;;9.38;4.38;;;18.10;52.20;;;;;;10391876;28;20243;-90
2023/07/04 19:39:37;;;;;;;10.68;6.10;;;17.80;56.50;;;;;;10392498;28;20604;-90
2023/07/04 19:44:40;;;;;;;7.93;5.43;;;17.60;65.40;;;;;;10391216;28;20239;-90
2023/07/04 19:49:42;;;;;;;9.20;5.63;;;17.40;70.90;;;;;;10409491;28;20271;-90
2023/07/04 19:54:46;;;;;;;10.25;5.68;;;17.30;74.70;;;;;;10408500;28;20239;-90
2023/07/04 19:59:49;;;;;;;11.60;5.40;;;17.10;81.40;;;;;;10409420;28;20267;-90
2023/07/04 20:04:53;;;;;;;8.52;6.00;;;17.00;85.40;;;;;;10410786;28;20301;-89
2023/07/04 20:09:57;;;;;;;13.00;5.50;;;16.80;88.30;;;;;;10412980;28;20235;-90
2023/07/04 20:15:00;;;;;;;11.02;6.05;;;16.60;90.80;;;;;;10455836;28;20203;-88
2023/07/04 20:20:03;;;;;;;10.40;5.72;;;16.50;91.90;;;;;;10464193;28;20203;-90
2023/07/04 20:25:06;;;;;;;10.05;5.72;;;16.50;92.00;;;;;;10422575;28;20244;-90
2023/07/04 20:30:09;;;;;;;12.93;6.10;;;16.40;92.50;;;;;;10394255;28;20290;-90
2023/07/04 20:35:12;;;;;;;16.30;6.40;;;16.10;94.40;;;;;;10426707;28;20345;-90
2023/07/04 20:40:14;;;;;;;9.38;5.53;;;15.90;95.80;;;;;;10434884;28;20716;-90
2023/07/04 20:45:17;;;;;;;16.42;5.50;;;15.80;96.60;;;;;;10448516;28;20227;-90
2023/07/04 20:50:25;;;;;;;23.73;8.02;;;15.80;96.80;;;;;;10414640;28;20219;-90
2023/07/04 20:55:28;;;;;;;9.70;5.90;;;15.70;97.10;;;;;;10436031;28;20199;-90
2023/07/04 21:00:32;;;;;;;11.50;5.78;;;15.60;97.80;;;;;;10434394;28;20264;-90
2023/07/04 21:05:39;;;;;;;15.52;6.80;;;15.50;98.30;;;;;;10411707;28;20200;-91
2023/07/04 21:10:42;;;;;;;10.88;6.00;;;15.40;99.30;;;;;;10379357;28;20639;-92
2023/07/04 21:15:47;;;;;;;14.35;6.25;;;15.30;99.40;;;;;;10397324;28;20227;-90
2023/07/04 21:20:49;;;;;;;15.73;5.68;;;15.30;99.50;;;;;;10398451;28;20248;-91
2023/07/04 21:25:59;;;;;;;10.23;5.47;;;15.10;99.90;;;;;;10409279;28;20238;-92
2023/07/04 21:31:06;;;;;;;10.95;5.28;;;15.10;99.90;;;;;;10394512;28;20215;-91
2023/07/04 21:36:10;;;;;;;19.50;5.63;;;15.10;99.90;;;;;;10384166;28;20244;-90
2023/07/04 21:41:16;;;;;;;18.38;6.70;;;15.00;99.90;;;;;;10371058;28;20208;-91
2023/07/04 21:46:22;;;;;;;15.45;6.53;;;14.90;99.90;;;;;;10359743;28;20203;-90
2023/07/04 21:51:27;;;;;;;11.95;6.13;;;15.00;99.90;;;;;;10393905;28;20235;-90
2023/07/04 21:56:30;;;;;;;23.88;6.65;;;14.90;99.90;;;;;;10393468;28;20329;-91
2023/07/04 22:01:32;;;;;;;14.27;5.68;;;14.50;99.90;;;;;;10393150;28;20655;-90
2023/07/04 22:06:35;;;;;;;11.23;5.78;;;14.40;99.90;;;;;;10416705;28;20191;-89
2023/07/04 22:11:38;;;;;;;19.70;6.75;;;14.30;99.90;;;;;;10385586;28;20215;-91
2023/07/04 22:16:40;;;;;;;12.98;4.75;;;14.10;99.90;;;;;;10400521;28;20216;-91
2023/07/04 22:21:44;;;;;;;15.55;7.57;;;14.10;99.90;;;;;;10418003;28;20607;-90
2023/07/04 22:26:46;;;;;;;15.05;6.13;;;14.10;99.90;;;;;;10400843;28;20200;-91
2023/07/04 22:31:49;;;;;;;20.70;6.47;;;14.00;99.90;;;;;;10400504;28;20208;-91
2023/07/04 22:36:51;;;;;;;7.15;5.20;;;13.90;99.90;;;;;;10399229;28;20263;-90
2023/07/04 22:41:54;;;;;;;12.43;6.18;;;;;;;;;;10400419;28;20191;-90
2023/07/04 22:46:57;;;;;;;6.68;5.03;;;13.90;99.90;;;;;;10383437;28;20568;-90
2023/07/04 22:52:00;;;;;;;9.55;5.53;;;14.00;99.90;;;;;;10400351;28;20228;-90
2023/07/04 22:57:03;;;;;;;10.27;5.50;;;13.90;99.90;;;;;;10416405;28;20271;-91
2023/07/04 23:02:05;;;;;;;7.93;4.95;;;13.90;99.90;;;;;;10399650;28;20253;-91
2023/07/04 23:07:09;;;;;;;15.48;6.53;;;14.00;99.90;;;;;;10383016;28;20204;-90
2023/07/04 23:12:11;;;;;;;16.52;5.93;;;13.90;99.90;;;;;;10416504;28;20212;-91
2023/07/04 23:17:14;;;;;;;8.82;5.05;;;13.70;99.90;;;;;;10414791;28;20247;-91
2023/07/04 23:22:17;;;;;;;10.90;6.72;;;13.70;99.90;;;;;;10417101;28;20195;-91
2023/07/04 23:27:19;;;;;;;6.43;5.47;;;13.60;99.90;;;;;;10398000;28;20226;-90
2023/07/04 23:32:22;;;;;;;11.63;5.75;;;13.50;99.90;;;;;;10415966;28;20223;-91
2023/07/04 23:37:25;;;;;;;6.25;5.20;;;13.60;99.90;;;;;;10381972;28;20686;-90
2023/07/04 23:42:28;;;;;;;6.22;4.38;;;13.60;99.90;;;;;;10415245;28;20246;-90
2023/07/04 23:47:30;;;;;;;9.75;5.25;;;13.60;99.90;;;;;;10398260;28;20597;-90
2023/07/04 23:52:33;;;;;;;5.50;4.50;;;13.20;99.90;;;;;;10396079;28;20835;-91
2023/07/04 23:57:36;;;;;;;10.48;5.20;;;13.40;99.90;;;;;;10413971;28;20267;-92
